地図

経路データ

SID SEASON NUMBER BASIN SUBBASIN NAME ISO_TIME NATURE LAT LON WMO_WIND WMO_PRES WMO_AGENCY TRACK_TYPE DIST2LAND LANDFALL IFLAG USA_AGENCY USA_ATCF_ID USA_LAT USA_LON USA_RECORD USA_STATUS USA_WIND USA_PRES USA_SSHS USA_R34_NE USA_R34_SE USA_R34_SW USA_R34_NW USA_R50_NE USA_R50_SE USA_R50_SW USA_R50_NW USA_R64_NE USA_R64_SE USA_R64_SW USA_R64_NW USA_POCI USA_ROCI USA_RMW USA_EYE TOKYO_LAT TOKYO_LON TOKYO_GRADE TOKYO_WIND TOKYO_PRES TOKYO_R50_DIR TOKYO_R50_LONG TOKYO_R50_SHORT TOKYO_R30_DIR TOKYO_R30_LONG TOKYO_R30_SHORT TOKYO_LAND CMA_LAT CMA_LON CMA_CAT CMA_WIND CMA_PRES HKO_LAT HKO_LON HKO_CAT HKO_WIND HKO_PRES NEWDELHI_LAT NEWDELHI_LON NEWDELHI_GRADE NEWDELHI_WIND NEWDELHI_PRES NEWDELHI_CI NEWDELHI_DP NEWDELHI_POCI REUNION_LAT REUNION_LON REUNION_TYPE REUNION_WIND REUNION_PRES REUNION_TNUM REUNION_CI REUNION_RMW REUNION_R34_NE REUNION_R34_SE REUNION_R34_SW REUNION_R34_NW REUNION_R50_NE REUNION_R50_SE REUNION_R50_SW REUNION_R50_NW REUNION_R64_NE REUNION_R64_SE REUNION_R64_SW REUNION_R64_NW BOM_LAT BOM_LON BOM_TYPE BOM_WIND BOM_PRES BOM_TNUM BOM_CI BOM_RMW BOM_R34_NE BOM_R34_SE BOM_R34_SW BOM_R34_NW BOM_R50_NE BOM_R50_SE BOM_R50_SW BOM_R50_NW BOM_R64_NE BOM_R64_SE BOM_R64_SW BOM_R64_NW BOM_ROCI BOM_POCI BOM_EYE BOM_POS_METHOD BOM_PRES_METHOD NADI_LAT NADI_LON NADI_CAT NADI_WIND NADI_PRES WELLINGTON_LAT WELLINGTON_LON WELLINGTON_WIND WELLINGTON_PRES DS824_LAT DS824_LON DS824_STAGE DS824_WIND DS824_PRES TD9636_LAT TD9636_LON TD9636_STAGE TD9636_WIND TD9636_PRES TD9635_LAT TD9635_LON TD9635_WIND TD9635_PRES TD9635_ROCI NEUMANN_LAT NEUMANN_LON NEUMANN_CLASS NEUMANN_WIND NEUMANN_PRES MLC_LAT MLC_LON MLC_CLASS MLC_WIND MLC_PRES USA_GUST BOM_GUST BOM_GUST_PER REUNION_GUST REUNION_GUST_PER USA_SEAHGT USA_SEARAD_NE USA_SEARAD_SE USA_SEARAD_SW USA_SEARAD_NW STORM_SPEED STORM_DIR
1952206N17245 1952 44 EP MM NOT_NAMED 1952-07-24 00:00:00 TS 16.5000 -115.000 75 hurdat_epa main 886 883 O________OO___ hurdat_epa EP041952 16.5000 -115.000 HU 75 1 16.5000 -115.000 TC 75 16.5000 -115.000 4 5 309
1952206N17245 1952 44 EP MM NOT_NAMED 1952-07-24 03:00:00 TS 16.6567 -115.202 main 881 878 P________PP___ EP041952 16.6576 -115.202 HU 75 1 16.6576 -115.202 TC 75 16.6534 -115.200 4 5 308
1952206N17245 1952 44 EP MM NOT_NAMED 1952-07-24 06:00:00 TS 16.7991 -115.400 75 hurdat_epa main 885 883 O________OP___ hurdat_epa EP041952 16.8000 -115.400 HU 75 1 16.8000 -115.400 TC 75 16.7953 -115.400 4 5 304
1952206N17245 1952 44 EP MM NOT_NAMED 1952-07-24 09:00:00 TS 16.9149 -115.594 main 890 888 P________PP___ EP041952 16.9150 -115.593 HU 75 1 16.9150 -115.593 TC 75 16.9146 -115.600 4 4 298
1952206N17245 1952 44 EP MM NOT_NAMED 1952-07-24 12:00:00 TS 17.0000 -115.800 75 hurdat_epa main 895 895 O________OO___ hurdat_epa EP041952 17.0000 -115.800 HU 75 1 17.0000 -115.800 TC 75 17.0000 -115.800 4 4 289
1952206N17245 1952 44 EP MM NOT_NAMED 1952-07-24 15:00:00 TS 17.0610 -116.035 main 901 901 P________PP___ EP041952 17.0650 -116.043 HU 75 1 17.0650 -116.043 TC 75 17.0453 -116.003 4 5 281
1952206N17245 1952 44 EP MM NOT_NAMED 1952-07-24 18:00:00 TS 17.0929 -116.285 75 hurdat_epa main 923 923 O________OP___ hurdat_epa EP041952 17.1000 -116.300 HU 75 1 17.1000 -116.300 TC 75 17.0644 -116.225 4 5 274
1952206N17245 1952 44 EP MM NOT_NAMED 1952-07-24 21:00:00 TS 17.0951 -116.513 main 938 938 P________PP___ EP041952 17.0998 -116.520 HU 75 1 17.0998 -116.520 TC 75 17.0764 -116.485 4 5 271
1952206N17245 1952 44 EP MM NOT_NAMED 1952-07-25 00:00:00 TS 17.1000 -116.800 75 hurdat_epa main 961 961 O________OO___ hurdat_epa EP041952 17.1000 -116.800 HU 75 1 17.1000 -116.800 TC 75 17.1000 -116.800 4 7 274
1952206N17245 1952 44 EP MM NOT_NAMED 1952-07-25 03:00:00 TS 17.1395 -117.219 main 992 992 P________PP___ EP041952 17.1351 -117.220 HU 75 1 17.1351 -117.220 TC 75 17.1571 -117.217 4 9 277
1952206N17245 1952 44 EP MM NOT_NAMED 1952-07-25 06:00:00 TS 17.2057 -117.697 75 hurdat_epa main 1020 1020 O________OP___ hurdat_epa EP041952 17.2000 -117.700 HU 75 1 17.2000 -117.700 TC 75 17.2283 -117.685 4 9 280
1952206N17245 1952 44 EP MM NOT_NAMED 1952-07-25 09:00:00 TS 17.2961 -118.170 main 1041 1041 P________PP___ EP041952 17.2925 -118.172 HU 75 1 17.2925 -118.172 TC 75 17.3102 -118.161 4 9 283
1952206N17245 1952 44 EP MM NOT_NAMED 1952-07-25 12:00:00 TS 17.4000 -118.600 75 hurdat_epa main 1058 1058 O________OO___ hurdat_epa EP041952 17.4000 -118.600 HU 75 1 17.4000 -118.600 TC 75 17.4000 -118.600 4 7 286
1952206N17245 1952 44 EP MM NOT_NAMED 1952-07-25 15:00:00 TS 17.4949 -118.917 main 1069 1069 P________PP___ EP041952 17.4998 -118.923 HU 75 1 17.4998 -118.923 TC 75 17.4754 -118.895 4 6 289
1952206N17245 1952 44 EP MM NOT_NAMED 1952-07-25 18:00:00 TS 17.5922 -119.191 75 hurdat_epa main 1082 1082 O________OP___ hurdat_epa EP041952 17.6000 -119.200 HU 75 1 17.6000 -119.200 TC 75 17.5608 -119.156 4 5 290
1952206N17245 1952 44 EP MM NOT_NAMED 1952-07-25 21:00:00 TS 17.6809 -119.452 main 1095 1095 P________PP___ EP041952 17.6847 -119.455 HU 75 1 17.6847 -119.455 TC 75 17.6658 -119.439 4 6 290
1952206N17245 1952 44 EP MM NOT_NAMED 1952-07-26 00:00:00 TS 17.8000 -119.800 75 hurdat_epa main 1109 1109 O________OO___ hurdat_epa EP041952 17.8000 -119.800 HU 75 1 17.8000 -119.800 TC 75 17.8000 -119.800 4 9 289
1952206N17245 1952 44 EP MM NOT_NAMED 1952-07-26 03:00:00 TS 17.9775 -120.344 main 1131 1131 P________PP___ EP041952 17.9852 -120.355 HU 75 1 17.9852 -120.355 TC 75 17.9470 -120.298 4 12 289
1952206N17245 1952 44 EP MM NOT_NAMED 1952-07-26 06:00:00 TS 18.1850 -120.976 75 hurdat_epa main 1171 1171 O________OP___ hurdat_epa EP041952 18.2000 -121.000 HU 75 1 18.2000 -121.000 TC 75 18.1251 -120.881 4 12 289
1952206N17245 1952 44 EP MM NOT_NAMED 1952-07-26 09:00:00 TS 18.3758 -121.573 main 1205 1205 P________PP___ EP041952 18.3847 -121.585 HU 75 1 18.3847 -121.585 TC 75 18.3405 -121.524 4 12 290
1952206N17245 1952 44 EP MM NOT_NAMED 1952-07-26 12:00:00 TS 18.6000 -122.200 75 hurdat_epa main 1243 1243 O________OO___ hurdat_epa EP041952 18.6000 -122.200 HU 75 1 18.6000 -122.200 TC 75 18.6000 -122.200 4 13 292
1952206N17245 1952 44 EP MM NOT_NAMED 1952-07-26 15:00:00 TS 18.8773 -122.886 main 1270 1270 P________PP___ EP041952 18.8699 -122.885 HU 75 1 18.8699 -122.885 TC 75 18.9071 -122.889 4 15 295
1952206N17245 1952 44 EP MM NOT_NAMED 1952-07-26 18:00:00 TS 19.2104 -123.597 75 hurdat_epa main 1291 1290 O________OP___ hurdat_epa EP041952 19.2000 -123.600 HU 75 1 19.2000 -123.600 TC 75 19.2518 -123.587 4 15 298
1952206N17245 1952 44 EP MM NOT_NAMED 1952-07-26 21:00:00 TS 19.5925 -124.302 main 1308 1308 P________PP___ EP041952 19.5854 -124.304 HU 75 1 19.5854 -124.304 TC 75 19.6206 -124.291 4 15 301
1952206N17245 1952 44 EP MM NOT_NAMED 1952-07-27 00:00:00 TS 20.0000 -125.000 75 hurdat_epa main 1330 O________OO___ hurdat_epa EP041952 20.0000 -125.000 HU 75 1 20.0000 -125.000 TC 75 20.0000 -125.000 4 15 302

IBTrACS Databaseについて

本データベースは、米国NOAAが公開する1842年以降の世界の熱帯低気圧のベストトラックデータアーカイブInternational Best Track Archive for Climate Stewardship (IBTrACS)を、ウェブで閲覧しやすい形式に変換したものです。

最終更新日:2021-12-06